Weather observations for the past three days for
Fort Worth Spinks Airport
Metric (Imperial)
Date Time (cdt) Wind (kph) Vis. (km) Weather Sky Cond. Temperature (ºC) Relative Humidity Wind Chill (°C) Heat Index (°C) Pressure Precipitation (cm)
Air Dwpt 6 hour altimeter (cm) sea level (mb) 1 hr 3 hr 6 hr
Max. Min.
04 20:55 S 22 12.87 Fair CLR 23.6 18.2 72% 75.46 0.0
04 20:35 S 17 14.48 Fair CLR 23.7 18.2 71% 75.46 0.0
04 20:15 S 20 11.27 A Few Clouds FEW230 23.9 18.2 71% 25 75.46 0.0
04 19:55 S 19 11.27 Fair CLR 24.3 18.2 69% 25 75.46 0.0
04 18:50 S 26 G 37 16.09 Fair CLR 25 18 65% 26 75.51 0.0
04 17:50 S 22 G 41 16.09 Fair CLR 26 18 61% 27 75.54 0.0
04 16:50 S 30 G 43 16.09 Fair CLR 27 18 58% 28 75.57 0.0
04 15:50 S 26 G 44 16.09 A Few Clouds FEW042 28 18 55% 29 75.64 0.0
04 14:50 S 30 G 39 16.09 A Few Clouds FEW042 27 17 54% 28 75.74 0.0
04 13:50 S 30 G 41 16.09 A Few Clouds FEW040 26 17 58% 27 75.79 0.0
04 12:50 S 31 G 39 16.09 A Few Clouds FEW037 25 16 57% 26 75.87 0.0
04 11:50 S 28 G 44 16.09 A Few Clouds FEW030 23 16 65% 75.95 0.0
04 10:50 S 33 G 43 16.09 Fair and Breezy CLR 22 15 65% 76 0.0
04 09:50 S 31 G 52 16.09 Fair CLR 21 15 69% 76 0.0
04 08:47 S 28 G 37 16.09 Fair CLR 19 14 73% 76.02 0.0
04 07:47 S 20 G 35 16.09 Fair CLR 17 13 77% 76.02 0.0
04 06:47 S 19 16.09 Fair CLR 16 13 83% 76 0.0
04 06:35 S 19 16.09 Fair CLR 15.9 12.8 82% 76 0.0
04 06:15 S 17 16.09 Fair CLR 15.6 12.7 83% 76 0.0
04 05:55 S 17 16.09 Fair CLR 15.3 12.6 84% 76.02 0.0
04 05:35 S 17 16.09 Fair CLR 15.3 12.5 84% 76.02 0.0
04 05:15 S 19 16.09 Fair CLR 15.4 12.4 82% 76.02 0.0
04 04:55 S 15 16.09 Fair CLR 15.4 12.3 82% 76.05 0.0
04 04:35 S 15 16.09 Fair CLR 15.3 12.2 82% 76.05 0.0
04 04:15 S 15 16.09 Fair CLR 15.6 12 79% 76.05 0.0
04 03:55 S 17 16.09 Fair CLR 15.9 11.9 77% 76.07 0.0
04 03:35 S 17 16.09 Fair CLR 16.2 11.6 74% 76.07 0.0
04 03:15 S 17 16.09 Fair CLR 16.5 11.4 72% 76.07 0.0
04 02:55 S 22 16.09 Fair CLR 17 11 68% 76.1 0.0
04 02:35 S 20 16.09 Fair CLR 17 10.7 67% 76.1 0.0
04 02:15 S 20 16.09 Fair CLR 17.1 10.1 64% 76.12 0.0
04 01:55 S 17 16.09 Fair CLR 17.1 10.2 64% 76.12 0.0
04 01:35 S 19 16.09 Fair CLR 16.3 10.4 68% 76.15 0.0
04 01:15 S 11 16.09 Fair CLR 15.6 10.6 72% 76.17 0.0
04 00:55 S 9 16.09 Fair CLR 15 10.5 24.3 15 75% 76.17 0.0
04 00:35 S 9 16.09 Fair CLR 15.1 10.5 74% 76.2 0.0
04 00:15 S 9 16.09 Fair CLR 15.8 10.4 70% 76.2 0.0
03 23:55 S 9 16.09 Fair CLR 16.2 10.3 68% 76.23 0.0
03 23:35 S 13 16.09 Fair CLR 16.8 10.2 65% 76.23 0.0
03 23:15 S 11 16.09 Fair CLR 17.1 10.2 64% 76.25 0.0
03 22:55 S 15 16.09 Fair CLR 17.6 10.2 62% 76.25 0.0
03 22:35 S 15 16.09 Fair CLR 17.6 10.3 62% 76.23 0.0
03 22:15 S 11 16.09 Fair CLR 17.9 10.4 62% 76.23 0.0
03 21:55 S 13 16.09 Fair CLR 18.4 10.3 59% 76.2 0.0
03 21:35 S 13 16.09 Fair CLR 18.8 10.2 58% 76.23 0.0
03 21:15 S 15 16.09 Fair CLR 19.1 10 56% 76.2 0.0
03 20:55 S 13 16.09 Fair CLR 19.4 9.7 54% 76.2 0.0
03 20:35 S 13 16.09 Fair CLR 20.2 9.4 50% 76.2 0.0
03 20:15 S 13 16.09 Fair CLR 20.8 9 47% 76.17 0.0
03 19:55 S 13 16.09 Fair CLR 21.6 8.6 43% 76.2 0.0
03 18:50 S 22 G 35 16.09 Fair CLR 25 8 34% 26 76.2 0.0
03 17:50 S 24 G 37 16.09 Fair CLR 26 8 32% 26 76.25 0.0
03 16:50 S 19 16.09 Fair CLR 26 9 34% 26 76.28 0.0
03 15:50 SW 17 G 30 16.09 Fair CLR 27 9 32% 27 76.35 0.0
03 14:50 SW 17 G 30 16.09 Fair CLR 27 9 32% 27 76.43 0.0
03 13:55 S 19 G 28 16.09 A Few Clouds FEW080 27 10 34% 27 76.45 0.0
03 12:50 S 22 16.09 Fair CLR 26 10 37% 26 76.56 0.0
03 11:47 SW 15 16.09 Fair CLR 25 12 44% 26 76.63 0.0
03 10:48 SW 20 16.09 Fair CLR 23 11 47% 76.66 0.0
03 09:48 W 19 16.09 Fair CLR 21 11 53% 76.66 0.0
03 08:55 SW 17 16.09 Fair CLR 19 10 56% 76.66 0.0
03 07:46 S 7 16.09 Fair CLR 14 11 82% 76.63 0.0
03 06:48 S 9 16.09 Fair CLR 11 9 88% 76.58 0.0
03 06:35 S 9 16.09 Fair CLR 10.7 9.1 90% 76.58 0.0
03 06:15 S 9 16.09 Fair CLR 10.9 9.2 89% 76.56 0.0
03 05:55 S 9 16.09 Fair CLR 11.2 9.2 88% 76.56 0.0
03 05:35 SW 9 9.66 Fair with Haze CLR 11.6 9 84% 76.56 0.0
03 05:15 S 9 14.48 Fair CLR 11.5 9.1 85% 76.56 0.0
03 04:55 S 9 16.09 Fair CLR 11.9 9.1 83% 76.56 0.0
03 04:35 S 11 16.09 Fair CLR 11.9 9 83% 76.53 0.0
03 04:15 S 11 12.87 Fair CLR 12.2 8.9 80% 76.53 0.0
03 03:55 S 9 16.09 Fair CLR 12 8.9 82% 76.53 0.0
03 03:35 SW 9 16.09 Fair CLR 12.6 8.9 78% 76.5 0.0
03 03:15 S 9 16.09 Fair CLR 12.4 9.1 80% 76.53 0.0
03 02:55 SW 11 16.09 Fair CLR 12.5 9.6 83% 76.53 0.0
03 02:35 SW 9 14.48 Fair CLR 12.7 9.8 83% 76.56 0.0
03 02:15 SW 11 16.09 Fair CLR 13.8 10.3 80% 76.56 0.0
03 01:55 SW 11 16.09 Fair CLR 13.4 10.2 81% 76.56 0.0
03 01:35 SW 13 4.02 Fair with Haze CLR 13.2 9.8 80% 76.58 0.0
03 01:15 SW 7 4.02 Fair with Haze CLR 13.7 9.8 77% 76.56 0.0
03 00:55 SW 7 9.66 Fair with Haze CLR 13.5 9.5 22.8 11 77% 76.56 0.0
03 00:35 S 7 16.09 Fair CLR 11.1 9.9 92% 76.56 0.0
03 00:15 SW 7 8.05 Fair with Haze CLR 12.5 9.1 80% 76.53 0.0
02 23:55 SW 7 8.05 Fair with Haze CLR 12.2 9.7 85% 76.53 0.0
02 23:35 S 7 14.48 Fair CLR 11.9 10.2 89% 76.53 0.0
02 23:15 S 7 14.48 Fair CLR 11.9 10.6 92% 76.53 0.0
02 22:55 S 6 14.48 Fair CLR 13.3 10.4 83% 76.53 0.0
02 22:35 SW 6 14.48 Fair CLR 13 10.7 86% 76.53 0.0
02 22:15 S 6 16.09 Fair CLR 12.6 11.1 91% 76.53 0.0
02 21:55 Calm 14.48 Fair CLR 13.2 11.1 87% 76.5 0.0
02 21:35 Calm 16.09 Fair CLR 14.2 10.8 80% 76.5 0.0
02 21:15 Calm 16.09 Fair CLR 15.6 10.1 70% 76.48 0.0
02 20:55 S 6 11.27 Fair CLR 15.3 11.2 77% 76.48 0.0
02 20:35 S 6 9.66 Fair with Haze CLR 17.2 9.9 62% 76.45 0.0
02 20:15 S 7 9.66 Fair with Haze CLR 17.7 10.5 63% 76.45 0.0
02 19:55 S 6 9.66 Fair with Haze CLR 19.7 11.7 60% 76.45 0.0
02 18:50 NE 4 16.09 A Few Clouds FEW080 23 10 44% 76.43 0.0
02 17:50 NE 7 16.09 Partly Cloudy SCT080 23 9 41% 76.45 0.0
02 16:50 W 4 16.09 Partly Cloudy SCT080 25 6 30% 25 76.48 0.0
02 15:50 NW 11 16.09 Partly Cloudy SCT080 24 7 34% 25 76.53 0.0
02 14:50 NE 9 16.09 Fair CLR 23 8 38% 76.61 0.0
02 12:50 NW 9 16.09 Fair CLR 22 6 36% 76.68 0.0
02 11:49 NW 7 16.09 Fair CLR 21 8 43% 76.71 0.0
02 10:55 NW 11 16.09 Fair CLR 20 9 49% 76.71 0.0
02 09:55 NW 11 16.09 Fair CLR 18 12 68% 76.71 0.0
02 08:54 NW 7 16.09 Fair CLR 16 12 77% 76.68 0.0
02 06:35 Calm 14.48 Fair CLR 6.3 6.3 100% 76.56 0.0
02 06:15 Calm 16.09 Fair CLR 6.1 6.1 100% 76.53 0.0
02 05:55 Calm 16.09 Fair CLR 6.5 6.5 100% 76.5 0.0
02 05:35 Calm 16.09 Fair CLR 6.7 6.5 99% 76.5 0.0
02 05:15 Calm 16.09 Fair CLR 8.5 7.4 93% 76.48 0.0
02 04:55 W 7 16.09 Fair CLR 9.3 8.4 94% 9 76.5 0.0
02 04:35 W 9 16.09 Fair CLR 8.7 8.4 98% 7 76.48 0.0
02 04:15 W 7 14.48 Fair CLR 8.2 7.9 98% 7 76.48 0.0
02 03:55 Calm 11.27 Fair CLR 9 8.6 97% 76.48 0.0
02 03:35 Calm 11.27 Fair CLR 7.4 7.4 100% 76.48 0.0
02 03:15 W 6 4.83 Fog/Mist CLR 7.4 7.4 100% 76.48 0.0
02 02:55 Calm 9.66 Fog/Mist CLR 7.4 7.4 100% 76.48 0.0
02 02:35 Calm 11.27 Fair CLR 8.5 8.5 100% 76.48 0.0
02 02:15 Calm 6.44 Fog/Mist CLR 8.4 8.4 100% 76.48 0.0
02 01:55 Calm 11.27 A Few Clouds FEW160 9 9 100% 76.48 0.0
02 01:35 Calm 11.27 Mostly Cloudy BKN160 8.3 8.3 100% 76.48 0.0
02 01:15 SW 6 11.27 Partly Cloudy SCT160 9.2 9.1 99% 76.5 0.0
02 00:55 Calm 6.44 Fog/Mist CLR 9.1 8.8 15.9 9.1 98% 76.5 0.0
02 00:35 Calm 12.87 A Few Clouds FEW160 10.2 9.7 97% 76.5 0.0
02 00:15 Calm 12.87 A Few Clouds FEW160 10.7 10 95% 76.48 0.0
01 23:55 Calm 14.48 Mostly Cloudy BKN070 BKN160 12 9.6 85% 76.48 0.0
01 23:35 Calm 14.48 Mostly Cloudy FEW055 BKN070 BKN160 12.2 10 87% 76.48 0.0
01 23:15 Calm 12.87 Overcast BKN050 OVC070 12.4 9.8 84% 76.48 0.0
01 22:55 Calm 12.87 A Few Clouds FEW050 11.9 9.4 85% 76.48 0.0
01 22:35 Calm 12.87 Partly Cloudy SCT080 11.9 9.4 85% 76.45 0.0
01 22:15 Calm 12.87 Mostly Cloudy SCT080 BKN160 12.2 10.1 87% 76.43 0.0
01 21:55 Calm 14.48 Mostly Cloudy FEW095 BKN150 12.9 10.2 84% 76.43 0.0
01 21:35 Calm 14.48 Overcast SCT095 OVC150 14.2 9.3 73% 76.43 0.0
01 21:15 Calm 12.87 Mostly Cloudy BKN090 14.4 9.8 74% 76.4 0.0
Date Time (cdt) Wind (kph) Vis. (km) Weather Sky Cond. Air Dwpt Max. Min. Relative Humidity Wind Chill (°C) Heat Index (°C) altimeter (cm) sea level (mb) 1 hr 3 hr 6 hr
6 hour
Temperature (ºC) Pressure Precipitation (cm)